Cottleville, Missouri
Current Conditions -  °F | °C
As of 1:54 PM on Monday 26 Jan 2015 (Local Time) from KSUS Reporting Station
Broken Clouds Broken Clouds  
Wind Chill: 34°   Ceiling: 7500
Heat Index: 40°   Visibility: 10mi
Dew Point: 30°   Wind: 8mph
Humidity: 68%   Direction: 190°S
Pressure: 29.87"   Gusts: NA
Location:  38.75°N, 90.65°W
Report Text: KSUS 261954Z 19007KT 10SM BKN075 04/M01 A2987 RMK AO2 SLP121 T00441011
Loading
Personal Weather Stations






























Interactive Weather Map New forecast layout! Learn more

10-Day Weather Forecast

Advertisements
Track Severe Weather on mobile